Time;durP1;ratioP1;P1;durP2;ratioP2;P2;SDS_P1;SDS_P2;PMS_P1;PMS_P2;Temp;Humidity;BMP_temperature;BMP_pressure;BME280_temperature;BME280_humidity;BME280_pressure;Samples;Min_cycle;Max_cycle;Signal;HPM_P1;HPM_P2
2023/12/09 16:04:23;;;;;;;70.40;31.20;;;0.70;99.90;;;;;;5104105;27;20120;-51
2023/12/09 16:06:49;;;;;;;72.18;32.63;;;0.60;99.90;;;;;;5093225;28;20035;-54
2023/12/09 16:09:15;;;;;;;69.72;33.78;;;0.60;99.90;;;;;;5094220;28;20086;-52
2023/12/09 16:11:40;;;;;;;75.40;35.30;;;0.60;99.90;;;;;;5092189;28;20612;-51
2023/12/09 16:14:07;;;;;;;70.90;34.90;;;0.60;99.90;;;;;;5093367;28;20031;-50
2023/12/09 16:16:32;;;;;;;74.30;36.33;;;0.60;99.90;;;;;;5093207;28;20278;-54
2023/12/09 16:18:58;;;;;;;62.72;34.22;;;0.70;99.90;;;;;;5092935;28;20527;-50
2023/12/09 16:21:24;;;;;;;73.10;34.55;;;0.70;99.90;;;;;;5096047;28;20034;-56
2023/12/09 16:26:00;;;;;;;76.90;38.10;;;0.70;99.90;;;;;;5103328;27;20404;-48
2023/12/09 16:28:26;;;;;;;80.65;38.80;;;0.70;99.90;;;;;;5105830;28;20376;-53
2023/12/09 16:30:52;;;;;;;75.47;36.13;;;0.70;99.90;;;;;;5105134;28;20028;-53
2023/12/09 16:33:18;;;;;;;76.05;37.33;;;0.70;99.90;;;;;;5104893;28;20036;-55
2023/12/09 16:35:43;;;;;;;77.50;39.30;;;0.70;99.90;;;;;;5105719;28;20028;-55
2023/12/09 16:38:10;;;;;;;79.13;37.35;;;0.70;99.90;;;;;;5089783;28;20117;-51
2023/12/09 16:40:36;;;;;;;83.65;40.33;;;0.70;99.90;;;;;;5084663;28;20032;-53
2023/12/09 16:43:02;;;;;;;89.00;42.70;;;0.70;99.90;;;;;;5083444;28;20032;-55
2023/12/09 16:45:28;;;;;;;91.70;43.35;;;0.70;99.90;;;;;;5083730;28;20320;-51
2023/12/09 16:47:55;;;;;;;87.13;41.20;;;0.70;99.90;;;;;;5082274;28;20044;-54
2023/12/09 16:50:20;;;;;;;79.17;40.07;;;0.80;99.90;;;;;;5083529;28;20029;-47
2023/12/09 16:52:46;;;;;;;72.15;35.22;;;0.80;99.90;;;;;;5082602;28;20686;-51
2023/12/09 16:55:12;;;;;;;76.75;35.00;;;0.70;99.90;;;;;;5082233;28;20387;-55
2023/12/09 16:57:38;;;;;;;69.05;33.42;;;0.70;99.90;;;;;;5083102;28;20082;-49
2023/12/09 17:00:05;;;;;;;67.22;34.78;;;0.70;99.90;;;;;;5083284;28;20032;-53
2023/12/09 17:02:31;;;;;;;68.20;33.42;;;0.80;99.90;;;;;;5083042;28;20036;-57
2023/12/09 17:04:58;;;;;;;67.70;34.92;;;0.80;99.90;;;;;;5083166;28;20059;-54
2023/12/09 17:07:24;;;;;;;66.88;34.38;;;0.70;99.90;;;;;;5082907;28;20465;-59
2023/12/09 17:09:51;;;;;;;70.70;35.97;;;0.70;99.90;;;;;;5082813;28;20474;-55
2023/12/09 17:12:17;;;;;;;62.63;32.58;;;0.70;99.90;;;;;;5082827;28;20032;-51
2023/12/09 17:14:43;;;;;;;69.27;33.70;;;0.70;99.90;;;;;;5097758;28;20036;-54
2023/12/09 17:17:09;;;;;;;68.53;32.55;;;0.70;99.90;;;;;;5082498;28;20446;-52
2023/12/09 17:19:35;;;;;;;69.82;34.95;;;0.70;99.90;;;;;;5082820;28;20549;-56
2023/12/09 17:22:01;;;;;;;65.95;32.33;;;0.70;99.90;;;;;;5082641;28;20054;-58
2023/12/09 17:24:27;;;;;;;70.38;32.63;;;0.60;99.90;;;;;;5081658;28;20056;-55
2023/12/09 17:26:53;;;;;;;64.97;34.10;;;0.50;99.90;;;;;;5082494;28;20028;-55
2023/12/09 17:29:19;;;;;;;72.95;34.25;;;0.40;99.90;;;;;;5081941;28;20352;-49
2023/12/09 17:31:45;;;;;;;69.00;34.65;;;0.40;99.90;;;;;;5082561;28;20036;-57
2023/12/09 17:34:10;;;;;;;63.75;31.75;;;0.40;99.90;;;;;;5082332;28;20036;-49
2023/12/09 17:36:37;;;;;;;72.13;35.45;;;0.40;99.90;;;;;;5072559;28;20024;-55
2023/12/09 17:39:12;;;;;;;75.28;37.10;;;0.40;99.90;;;;;;5068870;28;20432;-54
2023/12/09 17:41:38;;;;;;;81.07;41.25;;;0.30;99.90;;;;;;5068779;28;20097;-49
2023/12/09 17:44:04;;;;;;;100.90;45.95;;;0.40;99.90;;;;;;5068659;28;20989;-55
2023/12/09 17:46:30;;;;;;;91.78;44.03;;;0.40;99.90;;;;;;5068139;28;20024;-56
2023/12/09 17:48:55;;;;;;;94.68;44.17;;;0.40;99.90;;;;;;5087794;28;20106;-56
2023/12/09 17:51:22;;;;;;;88.53;43.58;;;0.40;99.90;;;;;;5088081;28;20102;-53
2023/12/09 17:53:48;;;;;;;82.07;41.20;;;0.40;99.90;;;;;;5071810;28;20842;-52
2023/12/09 17:56:14;;;;;;;89.57;40.80;;;0.40;99.90;;;;;;5068225;28;20032;-49
2023/12/09 17:58:39;;;;;;;81.78;38.50;;;0.40;99.90;;;;;;5067821;28;20036;-50
2023/12/09 18:01:05;;;;;;;79.95;37.92;;;0.40;99.90;;;;;;5068288;28;20028;-54
2023/12/09 18:03:31;;;;;;;79.60;37.97;;;0.50;99.90;;;;;;5068129;28;20839;-51
2023/12/09 18:05:57;;;;;;;74.45;35.65;;;0.50;99.90;;;;;;5068063;28;20111;-56
2023/12/09 18:08:23;;;;;;;80.43;37.40;;;0.50;99.90;;;;;;5068273;28;20086;-54
2023/12/09 18:10:49;;;;;;;78.22;37.67;;;0.50;99.90;;;;;;5067625;28;20074;-53
2023/12/09 18:13:14;;;;;;;77.15;37.78;;;0.50;99.90;;;;;;5083307;28;20472;-53
2023/12/09 18:15:46;;;;;;;75.43;37.50;;;0.50;99.90;;;;;;5068206;28;20488;-54
2023/12/09 18:18:12;;;;;;;72.93;36.67;;;0.50;99.90;;;;;;5068312;28;20020;-51
2023/12/09 18:20:37;;;;;;;69.80;34.50;;;0.50;99.90;;;;;;5067887;28;20622;-53
2023/12/09 18:23:03;;;;;;;63.85;32.90;;;0.50;99.90;;;;;;5073073;28;20020;-51
2023/12/09 18:25:29;;;;;;;64.95;31.25;;;0.50;99.90;;;;;;5087301;28;20487;-54
2023/12/09 18:27:56;;;;;;;73.97;35.40;;;0.60;99.90;;;;;;5087610;28;20119;-54
2023/12/09 18:30:22;;;;;;;67.78;32.47;;;0.50;99.90;;;;;;5087260;28;20036;-53
2023/12/09 18:32:48;;;;;;;62.42;31.45;;;0.60;99.90;;;;;;5086922;28;20039;-57
2023/12/09 18:35:15;;;;;;;65.57;32.30;;;0.60;99.90;;;;;;5087510;28;20028;-58
2023/12/09 18:37:42;;;;;;;62.05;30.98;;;0.60;99.90;;;;;;5085721;28;20082;-54
2023/12/09 18:40:09;;;;;;;66.05;33.22;;;0.60;99.90;;;;;;5087267;28;20035;-59
2023/12/09 18:42:35;;;;;;;59.15;31.02;;;0.60;99.90;;;;;;5087112;28;20034;-57
2023/12/09 18:45:02;;;;;;;65.32;32.72;;;0.60;99.90;;;;;;5087190;28;20032;-55
2023/12/09 18:47:31;;;;;;;61.90;29.20;;;0.60;99.90;;;;;;5086529;28;20036;-55
2023/12/09 18:49:59;;;;;;;62.20;29.02;;;0.50;99.90;;;;;;5087123;28;20031;-57
2023/12/09 18:52:25;;;;;;;57.90;30.15;;;0.50;99.90;;;;;;5087229;28;20020;-52
2023/12/09 18:54:50;;;;;;;67.63;30.90;;;0.40;99.90;;;;;;5086627;28;20024;-53
2023/12/09 18:57:16;;;;;;;68.18;31.80;;;0.40;99.90;;;;;;5085856;28;20024;-53
2023/12/09 18:59:43;;;;;;;66.18;31.92;;;0.40;99.90;;;;;;5085639;28;20012;-56
2023/12/09 19:02:09;;;;;;;67.60;32.88;;;0.40;99.90;;;;;;5086424;28;20028;-51
2023/12/09 19:04:35;;;;;;;76.60;35.28;;;0.30;99.90;;;;;;5084677;28;20038;-56
2023/12/09 19:07:02;;;;;;;75.28;37.00;;;0.30;99.90;;;;;;5086173;28;20036;-49
2023/12/09 19:09:28;;;;;;;79.05;35.38;;;0.30;99.90;;;;;;5081621;28;20110;-48
2023/12/09 19:11:54;;;;;;;74.93;35.90;;;0.30;99.90;;;;;;5087050;28;20660;-59
2023/12/09 19:14:20;;;;;;;71.43;36.70;;;0.30;99.90;;;;;;5076816;28;20037;-60
2023/12/09 19:16:45;;;;;;;86.57;38.72;;;0.40;99.90;;;;;;5066243;28;20044;-58
2023/12/09 19:19:11;;;;;;;81.70;38.92;;;0.40;99.90;;;;;;5066894;28;20036;-58
2023/12/09 19:21:39;;;;;;;83.47;42.10;;;0.30;99.90;;;;;;5066179;28;20032;-55
2023/12/09 19:24:06;;;;;;;112.30;50.80;;;0.40;99.90;;;;;;5066079;28;20060;-50
2023/12/09 19:26:33;;;;;;;111.53;51.90;;;0.40;99.90;;;;;;5065563;28;20024;-58
2023/12/09 19:29:00;;;;;;;117.05;53.65;;;0.40;99.90;;;;;;5065527;28;20418;-60
2023/12/09 19:31:26;;;;;;;117.97;52.35;;;0.40;99.90;;;;;;5064720;28;20384;-54
2023/12/09 19:33:52;;;;;;;107.43;51.05;;;0.40;99.90;;;;;;5065435;28;20483;-52
2023/12/09 19:36:18;;;;;;;103.70;47.42;;;0.40;99.90;;;;;;5065535;28;20107;-56
2023/12/09 19:38:44;;;;;;;126.25;52.22;;;0.50;99.90;;;;;;5079524;28;20169;-58
2023/12/09 19:41:09;;;;;;;145.45;58.80;;;0.50;99.90;;;;;;5087146;28;20028;-57
2023/12/09 19:43:37;;;;;;;146.15;58.55;;;0.40;99.90;;;;;;5086478;28;20020;-54
2023/12/09 19:46:04;;;;;;;121.88;51.92;;;0.40;99.90;;;;;;5085004;28;20123;-54
2023/12/09 19:48:30;;;;;;;117.85;51.42;;;0.40;99.90;;;;;;5086077;28;20517;-50
2023/12/09 19:50:56;;;;;;;100.57;46.15;;;0.40;99.90;;;;;;5086483;28;20146;-57
2023/12/09 19:53:23;;;;;;;88.50;41.17;;;0.50;99.90;;;;;;5086977;28;20059;-56
2023/12/09 19:55:50;;;;;;;87.70;40.97;;;0.50;99.90;;;;;;5085319;28;20032;-50
2023/12/09 19:58:15;;;;;;;;;;;0.60;99.90;;;;;;5087050;28;20364;-59
2023/12/09 20:00:43;;;;;;;74.68;37.25;;;0.60;99.90;;;;;;5085803;28;19915;-55
2023/12/09 20:03:08;;;;;;;;;;;0.60;99.90;;;;;;5086794;28;20028;-54
2023/12/09 20:05:34;;;;;;;82.78;38.20;;;0.60;99.90;;;;;;5085951;28;19935;-54
2023/12/09 20:08:00;;;;;;;89.90;41.50;;;0.60;99.90;;;;;;5086400;28;20383;-53
2023/12/09 20:10:25;;;;;;;84.78;39.67;;;0.70;99.90;;;;;;5086471;28;20035;-61
2023/12/09 20:12:52;;;;;;;82.32;40.97;;;0.70;99.90;;;;;;5086255;28;20064;-52
2023/12/09 20:15:18;;;;;;;81.60;41.45;;;0.70;99.90;;;;;;5086584;28;20055;-52
2023/12/09 20:17:44;;;;;;;80.85;40.10;;;0.60;99.90;;;;;;5085073;28;20082;-58
2023/12/09 20:20:10;;;;;;;71.32;36.70;;;0.70;99.90;;;;;;5086120;28;20027;-56
2023/12/09 20:22:35;;;;;;;77.53;39.47;;;0.70;99.90;;;;;;5086042;28;20383;-57
2023/12/09 20:25:02;;;;;;;73.15;38.42;;;0.70;99.90;;;;;;5086113;28;20048;-53
2023/12/09 20:27:27;;;;;;;76.22;39.83;;;0.70;99.90;;;;;;5086198;28;20039;-53
2023/12/09 20:29:54;;;;;;;80.05;38.58;;;0.80;99.90;;;;;;5086022;28;20032;-57
2023/12/09 20:32:23;;;;;;;87.75;40.60;;;0.80;99.90;;;;;;5085137;28;20082;-57
2023/12/09 20:34:48;;;;;;;87.32;39.08;;;0.70;99.90;;;;;;5082220;28;20028;-53
2023/12/09 20:37:14;;;;;;;86.60;41.70;;;0.60;99.90;;;;;;5085242;28;20028;-53
2023/12/09 20:39:40;;;;;;;92.95;42.92;;;0.60;99.90;;;;;;5085505;28;20469;-56
2023/12/09 20:42:07;;;;;;;92.15;44.30;;;0.50;99.90;;;;;;5082641;28;20035;-51
2023/12/09 20:44:32;;;;;;;117.68;56.70;;;0.50;99.90;;;;;;5085199;28;20028;-57
2023/12/09 20:46:58;;;;;;;96.93;43.73;;;0.40;99.90;;;;;;5083909;28;20040;-54
2023/12/09 20:49:24;;;;;;;108.63;47.53;;;0.40;99.90;;;;;;5085143;28;20277;-55
2023/12/09 20:51:51;;;;;;;112.03;47.53;;;0.30;99.90;;;;;;5085047;28;20537;-56
2023/12/09 20:54:17;;;;;;;;;;;0.30;99.90;;;;;;5086305;28;20046;-54
2023/12/09 20:56:43;;;;;;;105.95;45.88;;;0.30;99.90;;;;;;5085662;28;20445;-51
2023/12/09 20:59:10;;;;;;;98.75;43.88;;;0.20;99.90;;;;;;5085870;28;20047;-52
2023/12/09 21:01:44;;;;;;;;;;;0.20;99.90;;;;;;5086198;28;20030;-55
2023/12/09 21:04:12;;;;;;;80.38;39.42;;;0.10;99.90;;;;;;5085729;28;19916;-55
2023/12/09 21:06:39;;;;;;;86.65;43.42;;;0.10;99.90;;;;;;5085574;28;20103;-52
2023/12/09 21:09:06;;;;;;;89.55;42.45;;;0.10;99.90;;;;;;5085623;28;20524;-53
2023/12/09 21:11:36;;;;;;;90.55;42.60;;;0.10;99.90;;;;;;5087551;28;20419;-51
2023/12/09 21:14:03;;;;;;;84.95;40.50;;;0.00;99.90;;;;;;5089857;28;20024;-52
2023/12/09 21:16:29;;;;;;;91.97;45.30;;;0.10;99.90;;;;;;5087457;28;20028;-52
2023/12/09 21:18:56;;;;;;;88.07;42.60;;;0.00;99.90;;;;;;5089757;28;20028;-55
2023/12/09 21:21:22;;;;;;;110.97;50.95;;;0.00;99.90;;;;;;5090044;28;20035;-52
2023/12/09 21:23:47;;;;;;;116.30;53.50;;;-0.10;99.90;;;;;;5089365;28;20032;-55
2023/12/09 21:26:13;;;;;;;113.68;51.13;;;-0.10;99.90;;;;;;5089643;28;20103;-53
2023/12/09 21:28:39;;;;;;;114.32;53.20;;;-0.20;99.90;;;;;;5087110;28;20024;-53
2023/12/09 21:31:04;;;;;;;116.13;52.20;;;-0.20;99.90;;;;;;5088596;28;20032;-56
2023/12/09 21:33:31;;;;;;;115.88;53.75;;;-0.20;99.90;;;;;;5088350;28;20509;-56
2023/12/09 21:35:57;;;;;;;118.65;55.22;;;-0.20;99.90;;;;;;5088304;28;20035;-57
2023/12/09 21:38:23;;;;;;;118.18;53.97;;;-0.20;99.90;;;;;;5088947;28;20031;-53
2023/12/09 21:40:49;;;;;;;114.70;52.00;;;-0.20;99.90;;;;;;5085715;28;20024;-54
2023/12/09 21:43:14;;;;;;;96.95;46.08;;;-0.30;99.90;;;;;;5088313;28;20067;-54
2023/12/09 21:45:41;;;;;;;100.25;44.45;;;-0.40;99.90;;;;;;5088077;28;20032;-53
2023/12/09 21:48:08;;;;;;;90.13;40.25;;;-0.40;99.90;;;;;;5088384;28;20056;-52
2023/12/09 21:50:35;;;;;;;85.22;40.50;;;-0.40;99.90;;;;;;5086475;28;20032;-55
2023/12/09 21:53:01;;;;;;;79.90;36.92;;;-0.30;99.90;;;;;;5088315;28;20693;-54
